createdAt,value
2018-04-24T00:00:33.945Z,71.40
2018-04-24T00:03:00.706Z,71.30
2018-04-24T00:05:27.522Z,71.00
2018-04-24T00:07:54.370Z,72.30
2018-04-24T00:10:21.118Z,72.40
2018-04-24T00:12:47.848Z,71.50
2018-04-24T00:15:14.538Z,71.70
2018-04-24T00:17:41.235Z,72.50
2018-04-24T00:20:07.940Z,73.30
2018-04-24T00:22:34.647Z,73.80
2018-04-24T00:25:01.468Z,73.90
2018-04-24T00:27:28.260Z,74.00
2018-04-24T00:29:55.742Z,74.10
2018-04-24T00:32:22.433Z,74.00
2018-04-24T00:34:49.117Z,74.20
2018-04-24T00:37:15.815Z,74.30
2018-04-24T00:39:42.506Z,74.70
2018-04-24T00:42:09.203Z,75.40
2018-04-24T00:44:36.716Z,75.10
2018-04-24T00:47:03.555Z,75.10
2018-04-24T00:49:30.238Z,75.00
2018-04-24T00:51:56.980Z,75.80
2018-04-24T00:54:24.441Z,77.60
2018-04-24T00:56:51.936Z,77.70
2018-04-24T00:59:18.670Z,77.70
2018-04-24T01:01:46.151Z,76.30
2018-04-24T01:04:13.710Z,76.30
2018-04-24T01:06:40.482Z,76.40
2018-04-24T01:09:07.196Z,76.60
2018-04-24T01:11:33.898Z,76.50
2018-04-24T01:14:00.630Z,76.00
2018-04-24T01:16:27.364Z,76.10
2018-04-24T01:18:54.088Z,76.30
2018-04-24T01:21:21.662Z,76.20
2018-04-24T01:23:49.219Z,76.20
2018-04-24T01:26:17.897Z,76.00
2018-04-24T01:28:48.711Z,76.00
2018-04-24T01:31:17.130Z,75.60
2018-04-24T01:33:48.500Z,76.00
2018-04-24T01:36:15.982Z,76.60
2018-04-24T01:38:43.090Z,77.10
2018-04-24T01:41:10.157Z,78.20
2018-04-24T01:43:37.273Z,78.80
2018-04-24T01:46:04.334Z,79.60
2018-04-24T01:48:31.407Z,78.80
2018-04-24T01:50:58.459Z,79.00
2018-04-24T01:53:26.294Z,79.20
2018-04-24T01:55:53.442Z,79.00
2018-04-24T01:58:20.557Z,78.80
2018-04-24T02:00:47.649Z,79.10
2018-04-24T02:03:14.656Z,79.80
2018-04-24T02:05:41.674Z,79.80
2018-04-24T02:08:09.484Z,80.40
2018-04-24T02:10:36.526Z,80.30
2018-04-24T02:13:03.790Z,81.30
2018-04-24T02:15:30.896Z,80.50
2018-04-24T02:17:58.716Z,81.50
2018-04-24T02:20:25.811Z,81.40
2018-04-24T02:22:52.861Z,81.30
2018-04-24T02:25:20.636Z,81.00
2018-04-24T02:27:47.668Z,81.00
2018-04-24T02:30:15.436Z,81.00
2018-04-24T02:32:42.577Z,81.00
2018-04-24T02:35:10.664Z,80.70
2018-04-24T02:37:37.768Z,80.30
2018-04-24T02:40:04.871Z,80.10
2018-04-24T02:42:31.932Z,79.80
2018-04-24T02:44:59.032Z,79.80
2018-04-24T02:47:26.934Z,80.40
2018-04-24T02:49:54.011Z,80.40
2018-04-24T02:52:21.094Z,80.50
2018-04-24T02:54:48.169Z,80.30
2018-04-24T02:57:15.275Z,80.20
2018-04-24T02:59:42.298Z,80.10
2018-04-24T03:02:09.760Z,81.10
2018-04-24T03:04:36.815Z,81.90
2018-04-24T03:07:04.060Z,82.50
2018-04-24T03:09:31.146Z,83.30
2018-04-24T03:11:58.988Z,83.30
2018-04-24T03:14:26.072Z,83.30
2018-04-24T03:16:53.956Z,83.30
2018-04-24T03:19:21.007Z,83.30
2018-04-24T03:21:48.079Z,83.20
2018-04-24T03:24:15.187Z,83.10
2018-04-24T03:26:42.248Z,82.90
2018-04-24T03:29:09.337Z,82.90
2018-04-24T03:31:36.447Z,83.50
2018-04-24T03:34:03.561Z,83.40
2018-04-24T03:36:30.615Z,84.20
2018-04-24T03:38:57.711Z,84.10
2018-04-24T03:41:24.821Z,84.00
2018-04-24T03:43:52.651Z,84.60
2018-04-24T03:46:19.740Z,84.60
2018-04-24T03:48:47.555Z,84.90
2018-04-24T03:51:14.643Z,84.90
2018-04-24T03:53:41.711Z,84.50
2018-04-24T03:56:08.811Z,84.00
2018-04-24T03:58:35.893Z,84.00
2018-04-24T04:01:03.781Z,83.90
2018-04-24T04:03:30.872Z,83.90
2018-04-24T04:05:57.938Z,84.30
2018-04-24T04:08:25.056Z,84.70
2018-04-24T04:10:52.201Z,85.50
2018-04-24T04:13:20.096Z,86.00
2018-04-24T04:15:47.236Z,85.90
2018-04-24T04:18:32.726Z,86.20
2018-04-24T04:21:17.994Z,86.50
2018-04-24T04:24:03.216Z,86.60
2018-04-24T04:26:30.333Z,86.70
2018-04-24T04:28:57.487Z,87.30
2018-04-24T04:31:25.533Z,86.90
2018-04-24T04:33:52.713Z,86.90
2018-04-24T04:36:19.856Z,87.00
2018-04-24T04:38:46.911Z,87.50
2018-04-24T04:41:13.966Z,86.70
2018-04-24T04:43:41.810Z,85.90
2018-04-24T04:46:08.914Z,85.90
2018-04-24T04:48:36.111Z,85.50
2018-04-24T04:51:03.207Z,86.10
2018-04-24T04:53:30.274Z,86.00
2018-04-24T04:55:57.372Z,85.80
2018-04-24T04:58:25.229Z,83.40
2018-04-24T05:00:52.388Z,83.30
2018-04-24T05:03:20.228Z,81.30
2018-04-24T05:05:47.352Z,81.20
2018-04-24T05:08:14.447Z,82.90
2018-04-24T05:10:41.571Z,83.10
2018-04-24T05:13:08.636Z,83.00
2018-04-24T05:15:35.739Z,83.50
2018-04-24T05:18:02.844Z,82.80
2018-04-24T05:20:29.929Z,82.10
2018-04-24T05:22:57.013Z,81.20
2018-04-24T05:25:24.169Z,79.50
2018-04-24T05:27:51.262Z,78.00
2018-04-24T05:30:18.361Z,77.60
2018-04-24T05:32:45.457Z,76.90
2018-04-24T05:35:13.314Z,76.30
2018-04-24T05:40:28.466Z,75.60
2018-04-24T05:42:55.939Z,73.80
2018-04-24T05:45:23.064Z,71.50
2018-04-24T05:47:50.208Z,70.30
2018-04-24T05:50:17.293Z,71.60
2018-04-24T05:52:44.329Z,70.40
2018-04-24T05:55:11.343Z,70.40
2018-04-24T05:57:38.354Z,71.50
2018-04-24T06:00:06.149Z,71.80
2018-04-24T06:02:33.201Z,71.70
2018-04-24T06:05:00.201Z,71.10
2018-04-24T06:07:27.170Z,72.40
2018-04-24T06:09:54.406Z,70.70
2018-04-24T06:12:22.253Z,69.90
2018-04-24T06:14:49.365Z,69.90
2018-04-24T06:17:16.428Z,68.10
2018-04-24T06:19:43.466Z,69.70
2018-04-24T06:22:10.569Z,68.60
2018-04-24T06:24:38.373Z,70.80
2018-04-24T06:27:05.387Z,70.80
2018-04-24T06:29:33.137Z,70.00
2018-04-24T06:32:00.168Z,70.00
2018-04-24T06:34:27.206Z,70.60
2018-04-24T06:36:54.691Z,71.30
2018-04-24T06:39:21.736Z,72.10
2018-04-24T06:41:48.730Z,73.60
2018-04-24T06:44:15.730Z,73.60
2018-04-24T06:46:42.743Z,75.00
2018-04-24T06:49:09.753Z,74.30
2018-04-24T06:51:36.786Z,73.80
2018-04-24T06:54:04.685Z,71.50
2018-04-24T06:56:31.713Z,71.60
2018-04-24T06:58:58.691Z,70.60
2018-04-24T07:01:25.738Z,68.40
2018-04-24T07:03:52.756Z,66.40
2018-04-24T07:06:20.579Z,64.30
2018-04-24T07:08:47.535Z,64.30
2018-04-24T07:11:14.615Z,63.70
2018-04-24T07:13:41.667Z,60.60
2018-04-24T07:16:09.478Z,61.00
2018-04-24T07:18:36.532Z,60.90
2018-04-24T07:21:03.628Z,61.00
2018-04-24T07:23:31.451Z,59.00
2018-04-24T07:25:58.489Z,59.00
2018-04-24T07:28:25.474Z,57.70
2018-04-24T07:30:53.288Z,56.80
2018-04-24T07:33:20.348Z,56.80
2018-04-24T07:35:47.436Z,56.40
2018-04-24T07:38:15.326Z,57.00
2018-04-24T07:40:43.743Z,57.00
2018-04-24T07:43:10.766Z,58.00
2018-04-24T07:45:37.767Z,58.20
2018-04-24T07:48:04.780Z,59.20
2018-04-24T07:50:31.756Z,59.50
2018-04-24T07:52:58.743Z,59.60
2018-04-24T07:55:25.789Z,57.70
2018-04-24T07:57:53.624Z,58.20
2018-04-24T08:00:20.689Z,58.30
2018-04-24T08:02:47.818Z,56.70
2018-04-24T08:05:14.893Z,55.10
2018-04-24T08:07:42.674Z,53.40
2018-04-24T08:10:09.758Z,53.40
2018-04-24T08:12:36.828Z,50.50
2018-04-24T08:15:03.844Z,51.30
2018-04-24T08:17:30.976Z,50.80
2018-04-24T08:19:58.081Z,50.40
2018-04-24T08:22:26.041Z,49.70
2018-04-24T08:24:53.094Z,49.50
2018-04-24T08:27:20.193Z,47.40
2018-04-24T08:29:47.284Z,41.50
2018-04-24T08:32:14.351Z,44.30
2018-04-24T08:34:42.276Z,46.00
2018-04-24T08:37:09.351Z,46.00
2018-04-24T08:39:36.458Z,46.30
2018-04-24T08:42:03.901Z,46.40
2018-04-24T08:44:30.976Z,46.90
2018-04-24T08:46:58.039Z,48.30
2018-04-24T08:49:25.106Z,47.90
2018-04-24T08:51:52.252Z,46.00
2018-04-24T08:54:20.856Z,47.20
2018-04-24T08:56:48.645Z,45.60
2018-04-24T08:59:15.629Z,45.60
2018-04-24T09:01:42.682Z,46.60
2018-04-24T09:04:09.881Z,44.90
2018-04-24T09:06:37.072Z,44.50
2018-04-24T09:09:06.208Z,43.60
2018-04-24T09:11:34.043Z,41.10
2018-04-24T09:14:01.096Z,41.10
2018-04-24T09:16:28.153Z,41.80
2018-04-24T09:18:55.151Z,39.90
2018-04-24T09:21:22.183Z,39.40
2018-04-24T09:23:49.947Z,38.70
2018-04-24T09:26:17.779Z,37.10
2018-04-24T09:28:44.789Z,37.10
2018-04-24T09:31:11.761Z,37.10
2018-04-24T09:33:38.893Z,39.50
2018-04-24T09:36:05.836Z,38.70
2018-04-24T09:38:32.830Z,37.50
2018-04-24T09:40:59.827Z,36.80
2018-04-24T09:43:26.925Z,37.90
2018-04-24T09:45:55.230Z,37.10
2018-04-24T09:48:22.481Z,34.60
2018-04-24T09:50:49.634Z,35.50
2018-04-24T09:53:16.701Z,34.10
2018-04-24T09:55:43.667Z,32.60
2018-04-24T09:58:23.935Z,33.20
2018-04-24T10:00:50.992Z,34.40
2018-04-24T10:03:19.717Z,34.70
2018-04-24T10:05:46.771Z,34.70
2018-04-24T10:08:13.771Z,34.80
2018-04-24T10:10:40.761Z,35.40
2018-04-24T10:13:07.942Z,35.70
2018-04-24T10:15:34.959Z,36.20
2018-04-24T10:18:03.322Z,36.90
2018-04-24T10:20:30.822Z,37.00
2018-04-24T10:22:58.791Z,37.00
2018-04-24T10:25:27.122Z,38.80
2018-04-24T10:27:55.499Z,39.30
2018-04-24T10:30:23.372Z,38.10
2018-04-24T10:32:51.069Z,38.50
2018-04-24T10:35:18.286Z,38.50
2018-04-24T10:37:46.221Z,37.80
2018-04-24T10:40:14.351Z,36.80
2018-04-24T10:42:41.375Z,37.90
2018-04-24T10:45:09.183Z,36.70
2018-04-24T10:47:36.197Z,36.60
2018-04-24T10:50:03.289Z,37.70
2018-04-24T10:52:31.420Z,38.40
2018-04-24T10:54:59.061Z,36.00
2018-04-24T10:57:26.945Z,35.20
2018-04-24T10:59:54.813Z,35.20
2018-04-24T11:02:22.057Z,32.80
2018-04-24T11:04:49.810Z,30.70
2018-04-24T11:07:17.748Z,30.30
2018-04-24T11:09:59.520Z,30.00
2018-04-24T11:12:26.697Z,31.60
2018-04-24T11:14:55.009Z,31.60
2018-04-24T11:17:21.979Z,33.50
2018-04-24T11:19:49.049Z,34.30
2018-04-24T11:22:16.047Z,34.70
2018-04-24T11:24:43.774Z,35.50
2018-04-24T11:27:10.845Z,35.40
2018-04-24T11:29:38.003Z,34.10
2018-04-24T11:32:06.730Z,34.70
2018-04-24T11:34:33.780Z,33.70
2018-04-24T11:37:01.566Z,34.40
2018-04-24T11:39:28.540Z,34.40
2018-04-24T11:41:55.566Z,34.20
2018-04-24T11:44:22.633Z,36.20
2018-04-24T11:46:49.691Z,35.00
2018-04-24T11:49:16.663Z,34.00
2018-04-24T11:51:44.395Z,34.10
2018-04-24T11:54:11.417Z,34.10
2018-04-24T11:56:38.410Z,34.60
2018-04-24T11:59:06.161Z,35.70
2018-04-24T12:01:33.170Z,35.70
2018-04-24T12:04:01.085Z,36.80
2018-04-24T12:06:28.160Z,36.30
2018-04-24T12:08:55.193Z,36.30
2018-04-24T12:11:23.018Z,36.20
2018-04-24T12:13:50.050Z,36.10
2018-04-24T12:16:18.485Z,37.30
2018-04-24T12:18:47.734Z,34.40
2018-04-24T12:21:14.789Z,34.40
2018-04-24T12:23:44.312Z,32.80
2018-04-24T12:26:11.319Z,32.50
2018-04-24T12:28:39.969Z,32.50
2018-04-24T12:31:07.735Z,34.10
2018-04-24T12:33:35.527Z,35.20
2018-04-24T12:36:02.653Z,35.20
2018-04-24T12:38:29.633Z,36.50
2018-04-24T12:40:56.619Z,35.00
2018-04-24T12:43:23.691Z,36.30
2018-04-24T12:45:51.429Z,33.60
2018-04-24T12:48:18.473Z,33.60
2018-04-24T12:50:45.492Z,32.20
2018-04-24T12:53:12.513Z,30.80
2018-04-24T12:55:39.508Z,32.20
2018-04-24T12:58:06.498Z,32.20
2018-04-24T13:00:33.487Z,32.40
2018-04-24T13:03:00.481Z,33.90
2018-04-24T13:05:28.195Z,32.20
2018-04-24T13:07:55.202Z,32.20
2018-04-24T13:10:22.952Z,33.40
2018-04-24T13:12:50.679Z,33.30
2018-04-24T13:15:17.768Z,33.30
2018-04-24T13:17:45.531Z,33.90
2018-04-24T13:20:12.584Z,33.90
2018-04-24T13:22:40.344Z,34.70
2018-04-24T13:25:08.112Z,34.60
2018-04-24T13:27:35.929Z,34.70
2018-04-24T13:30:03.240Z,34.60
2018-04-24T13:32:30.231Z,34.90
2018-04-24T13:34:57.237Z,34.70
2018-04-24T13:37:24.974Z,35.10
2018-04-24T13:39:51.995Z,35.10
2018-04-24T13:42:20.175Z,35.00
2018-04-24T13:44:47.191Z,33.80
2018-04-24T13:47:14.252Z,35.30
2018-04-24T13:49:41.311Z,34.40
2018-04-24T13:52:08.345Z,33.80
2018-04-24T13:54:35.327Z,34.90
2018-04-24T13:57:02.324Z,34.20
2018-04-24T13:59:29.363Z,34.20
2018-04-24T14:01:56.316Z,36.40
2018-04-24T14:04:23.299Z,35.30
2018-04-24T14:06:50.309Z,33.30
2018-04-24T14:09:17.659Z,33.60
2018-04-24T14:11:45.409Z,34.50
2018-04-24T14:14:12.465Z,34.50
2018-04-24T14:16:39.535Z,34.10
2018-04-24T14:19:06.644Z,33.90
2018-04-24T14:21:34.207Z,34.20
2018-04-24T14:24:01.272Z,34.40
2018-04-24T14:26:28.299Z,33.40
2018-04-24T14:28:55.317Z,31.30
2018-04-24T14:31:22.376Z,28.90
2018-04-24T14:33:49.529Z,30.20
2018-04-24T14:36:16.967Z,30.20
2018-04-24T14:38:43.967Z,31.70
2018-04-24T14:41:10.979Z,29.00
2018-04-24T14:43:37.982Z,29.50
2018-04-24T14:46:04.987Z,29.20
2018-04-24T14:48:31.992Z,28.60
2018-04-24T14:51:04.327Z,28.90
2018-04-24T14:53:32.039Z,29.20
2018-04-24T14:55:59.056Z,29.10
2018-04-24T14:58:26.154Z,28.80
2018-04-24T15:00:53.283Z,29.50
2018-04-24T15:03:20.256Z,29.20
2018-04-24T15:05:47.376Z,29.20
2018-04-24T15:08:14.369Z,29.90
2018-04-24T15:10:42.172Z,27.30
2018-04-24T15:13:09.234Z,27.20
2018-04-24T15:15:36.324Z,26.60
2018-04-24T15:18:04.141Z,25.80
2018-04-24T15:20:31.363Z,25.80
2018-04-24T15:22:58.414Z,25.00
2018-04-24T15:25:25.423Z,25.80
2018-04-24T15:27:52.423Z,26.70
2018-04-24T15:30:19.376Z,26.90
2018-04-24T15:32:46.381Z,26.90
2018-04-24T15:35:14.106Z,28.10
2018-04-24T15:37:41.138Z,28.10
2018-04-24T15:40:08.115Z,28.20
2018-04-24T15:42:35.125Z,28.50
2018-04-24T15:45:02.136Z,29.20
2018-04-24T15:47:29.861Z,28.70
2018-04-24T15:49:56.935Z,28.70
2018-04-24T15:52:24.683Z,28.70
2018-04-24T15:54:51.655Z,28.70
2018-04-24T15:57:18.691Z,28.70
2018-04-24T15:59:46.453Z,29.80
2018-04-24T16:02:14.206Z,29.90
2018-04-24T16:04:41.196Z,29.80
2018-04-24T16:07:08.991Z,31.10
2018-04-24T16:09:35.973Z,31.10
2018-04-24T16:12:02.953Z,31.00
2018-04-24T16:14:29.948Z,29.80
2018-04-24T16:16:56.928Z,29.80
2018-04-24T16:19:24.764Z,31.60
2018-04-24T16:21:51.693Z,31.50
2018-04-24T16:24:18.680Z,31.60
2018-04-24T16:26:46.421Z,33.00
2018-04-24T16:29:13.571Z,32.90
2018-04-24T16:31:40.543Z,32.80
2018-04-24T16:34:08.263Z,33.40
2018-04-24T16:36:35.233Z,33.30
2018-04-24T16:39:02.264Z,33.80
2018-04-24T16:41:29.289Z,35.40
2018-04-24T16:43:56.302Z,35.00
2018-04-24T16:46:23.307Z,35.50
2018-04-24T16:48:50.313Z,34.60
2018-04-24T16:51:19.258Z,34.40
2018-04-24T16:53:46.276Z,35.10
2018-04-24T16:56:13.321Z,34.40
2018-04-24T16:58:40.971Z,35.20
2018-04-24T17:01:07.944Z,35.60
2018-04-24T17:03:34.957Z,35.40
2018-04-24T17:06:01.939Z,35.40
2018-04-24T17:08:31.775Z,35.90
2018-04-24T17:11:00.036Z,36.20
2018-04-24T17:13:42.232Z,36.70
2018-04-24T17:16:09.242Z,36.70
2018-04-24T17:18:37.694Z,37.00
2018-04-24T17:21:04.682Z,37.20
2018-04-24T17:23:31.685Z,37.70
2018-04-24T17:25:58.684Z,38.20
2018-04-24T17:28:25.654Z,38.70
2018-04-24T17:30:52.693Z,38.80
2018-04-24T17:33:19.700Z,39.00
2018-04-24T17:35:46.724Z,39.00
2018-04-24T17:38:14.539Z,39.60
2018-04-24T17:40:41.530Z,39.50
2018-04-24T17:43:08.550Z,39.60
2018-04-24T17:45:35.562Z,39.60
2018-04-24T17:48:02.580Z,39.70
2018-04-24T17:50:29.603Z,40.00
2018-04-24T17:52:56.631Z,39.00
2018-04-24T17:55:23.651Z,40.10
2018-04-24T17:57:50.642Z,39.40
2018-04-24T18:00:17.651Z,39.70
2018-04-24T18:02:44.632Z,39.70
2018-04-24T18:05:11.610Z,39.10
2018-04-24T18:07:38.643Z,39.30
2018-04-24T18:10:05.714Z,39.70
2018-04-24T18:12:33.490Z,40.60
2018-04-24T18:15:00.530Z,40.60
2018-04-24T18:17:28.260Z,40.90
2018-04-24T18:19:55.242Z,40.90
2018-04-24T18:22:22.987Z,41.90
2018-04-24T18:24:50.002Z,41.90
2018-04-24T18:27:16.985Z,42.10
2018-04-24T18:29:43.950Z,42.90
2018-04-24T18:32:11.717Z,44.30
2018-04-24T18:34:39.531Z,44.50
2018-04-24T18:37:06.568Z,44.50
2018-04-24T18:39:33.563Z,44.70
2018-04-24T18:42:01.357Z,45.20
2018-04-24T18:44:28.355Z,45.20
2018-04-24T18:46:55.360Z,46.00
2018-04-24T18:49:22.359Z,48.80
2018-04-24T18:51:50.151Z,51.40
2018-04-24T18:54:18.683Z,51.30
2018-04-24T18:56:45.788Z,52.50
2018-04-24T18:59:12.860Z,53.20
2018-04-24T19:01:39.943Z,53.30
2018-04-24T19:04:06.982Z,52.20
2018-04-24T19:06:34.025Z,52.60
2018-04-24T19:09:01.034Z,52.20
2018-04-24T19:11:28.149Z,51.70
2018-04-24T19:13:55.979Z,52.40
2018-04-24T19:16:22.965Z,52.40
2018-04-24T19:18:55.964Z,53.20
2018-04-24T19:21:23.076Z,54.20
2018-04-24T19:23:50.049Z,54.20
2018-04-24T19:26:17.764Z,55.50
2018-04-24T19:28:44.770Z,55.50
2018-04-24T19:31:18.404Z,54.80
2018-04-24T19:33:45.362Z,54.80
2018-04-24T19:36:13.379Z,56.00
2018-04-24T19:41:25.568Z,58.90
2018-04-24T19:43:52.628Z,60.10
2018-04-24T19:46:20.090Z,60.60
2018-04-24T19:48:53.966Z,61.70
2018-04-24T19:51:21.307Z,61.70
2018-04-24T19:53:48.356Z,62.20
2018-04-24T19:56:15.455Z,62.60
2018-04-24T19:58:44.163Z,62.80
2018-04-24T20:01:11.190Z,62.80
2018-04-24T20:03:38.907Z,63.70
2018-04-24T20:06:05.942Z,64.40
2018-04-24T20:08:32.927Z,64.10
2018-04-24T20:10:59.934Z,64.00
2018-04-24T20:13:26.927Z,64.30
2018-04-24T20:15:53.998Z,64.60
2018-04-24T20:18:21.806Z,65.10
2018-04-24T20:20:48.765Z,66.00
2018-04-24T20:23:15.805Z,67.00
2018-04-24T20:25:42.815Z,67.80
2018-04-24T20:28:09.840Z,68.10
2018-04-24T20:30:37.552Z,68.30
2018-04-24T20:33:04.579Z,68.20
2018-04-24T20:35:31.580Z,67.90
2018-04-24T20:37:58.592Z,67.10
2018-04-24T20:40:25.649Z,67.80
2018-04-24T20:42:52.714Z,66.80
2018-04-24T20:45:19.749Z,67.20
2018-04-24T20:47:46.761Z,67.60
2018-04-24T20:50:14.494Z,68.10
2018-04-24T20:52:41.464Z,68.10
2018-04-24T20:55:09.206Z,69.20
2018-04-24T20:57:36.296Z,69.20
2018-04-24T21:00:03.547Z,69.70
2018-04-24T21:02:30.624Z,70.40
2018-04-24T21:04:57.619Z,69.20
2018-04-24T21:07:25.346Z,69.30
2018-04-24T21:09:52.377Z,69.30
2018-04-24T21:12:19.368Z,69.40
2018-04-24T21:14:47.194Z,70.00
2018-04-24T21:17:14.241Z,69.80
2018-04-24T21:19:41.321Z,70.90
2018-04-24T21:22:09.159Z,71.60
2018-04-24T21:24:37.237Z,71.60
2018-04-24T21:27:04.229Z,72.20
2018-04-24T21:29:31.256Z,71.60
2018-04-24T21:31:58.269Z,72.30
2018-04-24T21:34:25.286Z,72.70
2018-04-24T21:36:53.168Z,71.70
2018-04-24T21:39:20.949Z,71.40
2018-04-24T21:41:48.023Z,71.40
2018-04-24T21:44:15.020Z,71.50
2018-04-24T21:46:42.081Z,71.10
2018-04-24T21:49:09.074Z,70.80
2018-04-24T21:51:36.044Z,70.50
2018-04-24T21:54:03.812Z,70.10
2018-04-24T21:56:30.815Z,70.10
2018-04-24T21:58:58.804Z,70.00
2018-04-24T22:01:26.716Z,70.30
2018-04-24T22:03:53.824Z,70.30
2018-04-24T22:06:21.675Z,71.10
2018-04-24T22:08:49.493Z,72.30
2018-04-24T22:11:16.522Z,72.20
2018-04-24T22:13:43.537Z,71.60
2018-04-24T22:16:10.528Z,72.30
2018-04-24T22:18:37.507Z,72.10
2018-04-24T22:21:04.620Z,73.30
2018-04-24T22:23:31.592Z,73.00
2018-04-24T22:25:58.630Z,73.40
2018-04-24T22:28:25.617Z,73.60
2018-04-24T22:30:52.632Z,73.40
2018-04-24T22:33:19.648Z,73.90
2018-04-24T22:35:46.802Z,74.30
2018-04-24T22:38:13.882Z,74.50
2018-04-24T22:40:40.951Z,74.40
2018-04-24T22:43:07.957Z,74.80
2018-04-24T22:45:34.991Z,74.80
2018-04-24T22:48:01.977Z,74.90
2018-04-24T22:50:29.056Z,74.20
2018-04-24T22:52:56.047Z,73.40
2018-04-24T22:55:23.037Z,72.70
2018-04-24T22:57:50.005Z,72.30
2018-04-24T23:00:18.565Z,73.10
2018-04-24T23:02:45.585Z,73.10
2018-04-24T23:05:12.603Z,73.70
2018-04-24T23:07:47.538Z,74.00
2018-04-24T23:10:32.547Z,74.60
2018-04-24T23:13:17.778Z,75.30
2018-04-24T23:16:02.772Z,76.00
2018-04-24T23:18:48.195Z,76.80
2018-04-24T23:21:15.487Z,78.70
2018-04-24T23:23:43.347Z,79.30
2018-04-24T23:26:10.382Z,78.50
2018-04-24T23:28:38.232Z,77.90
2018-04-24T23:31:06.042Z,78.10
2018-04-24T23:33:35.155Z,78.10
2018-04-24T23:36:02.239Z,78.60
2018-04-24T23:38:29.289Z,78.60
2018-04-24T23:40:57.022Z,78.70
2018-04-24T23:43:24.033Z,78.70
2018-04-24T23:45:51.043Z,78.60
2018-04-24T23:48:19.435Z,78.70
2018-04-24T23:50:48.675Z,78.90
2018-04-24T23:53:17.972Z,78.90
2018-04-24T23:55:44.972Z,79.10
2018-04-24T23:58:12.669Z,79.80
